Time;durP1;ratioP1;P1;durP2;ratioP2;P2;SDS_P1;SDS_P2;PMS_P1;PMS_P2;Temp;Humidity;BMP_temperature;BMP_pressure;BME280_temperature;BME280_humidity;BME280_pressure;Samples;Min_cycle;Max_cycle;Signal;HPM_P1;HPM_P2
2023/04/23 00:02:01;;;;;;;4.43;1.98;;;13.00;99.90;;;;;;5051865;28;20013;-44
2023/04/23 00:04:27;;;;;;;2.17;1.67;;;13.00;99.90;;;;;;5051882;28;20045;-44
2023/04/23 00:06:54;;;;;;;3.35;1.70;;;13.00;99.90;;;;;;5051232;28;20021;-43
2023/04/23 00:09:22;;;;;;;3.45;1.67;;;13.00;99.90;;;;;;5051940;28;20031;-45
2023/04/23 00:11:48;;;;;;;4.50;2.22;;;13.00;99.90;;;;;;5051820;28;20029;-44
2023/04/23 00:14:14;;;;;;;3.22;1.88;;;13.00;99.90;;;;;;5051784;28;20024;-43
2023/04/23 00:16:40;;;;;;;2.83;2.00;;;13.00;99.90;;;;;;5051824;28;20029;-44
2023/04/23 00:19:06;;;;;;;3.53;1.80;;;13.00;99.90;;;;;;5051688;28;20429;-41
2023/04/23 00:21:32;;;;;;;2.97;1.70;;;13.00;99.90;;;;;;5051616;28;20027;-44
2023/04/23 00:23:58;;;;;;;3.17;1.90;;;13.00;99.90;;;;;;5051532;28;20021;-44
2023/04/23 00:26:24;;;;;;;3.95;2.05;;;13.00;99.90;;;;;;5050907;28;20049;-44
2023/04/23 00:28:49;;;;;;;4.22;1.67;;;12.90;99.90;;;;;;5051448;28;20024;-45
2023/04/23 00:31:15;;;;;;;4.63;2.00;;;12.90;99.90;;;;;;5052019;28;20029;-44
2023/04/23 00:33:40;;;;;;;3.40;1.92;;;12.90;99.90;;;;;;5051548;28;20017;-44
2023/04/23 00:36:06;;;;;;;4.68;2.00;;;13.00;99.90;;;;;;5050691;28;20463;-43
2023/04/23 00:38:32;;;;;;;2.22;1.90;;;13.00;99.90;;;;;;5051301;28;20040;-43
2023/04/23 00:40:58;;;;;;;3.72;2.03;;;13.00;99.90;;;;;;5051264;28;20044;-44
2023/04/23 00:43:23;;;;;;;3.38;1.90;;;13.00;99.90;;;;;;5051161;28;20032;-43
2023/04/23 00:45:49;;;;;;;2.28;1.63;;;13.00;99.90;;;;;;5050697;28;20066;-44
2023/04/23 00:48:15;;;;;;;4.22;2.00;;;12.90;99.90;;;;;;5051289;28;20044;-44
2023/04/23 00:50:42;;;;;;;2.75;1.65;;;12.90;99.90;;;;;;5051483;28;20390;-43
2023/04/23 00:53:07;;;;;;;2.92;1.85;;;12.80;99.90;;;;;;5051182;28;20025;-44
2023/04/23 00:55:33;;;;;;;3.08;1.83;;;12.80;99.90;;;;;;5050969;28;20016;-44
2023/04/23 00:57:59;;;;;;;3.05;1.90;;;12.80;99.90;;;;;;5051252;28;20071;-44
2023/04/23 01:00:25;;;;;;;2.50;1.60;;;12.80;99.90;;;;;;5050936;28;20394;-44
2023/04/23 01:02:52;;;;;;;3.10;1.60;;;12.80;99.90;;;;;;5050846;28;20021;-44
2023/04/23 01:05:19;;;;;;;2.67;1.70;;;12.80;99.90;;;;;;5050799;28;20123;-45
2023/04/23 01:07:45;;;;;;;3.50;1.60;;;12.80;99.90;;;;;;5050482;28;20071;-42
2023/04/23 01:10:11;;;;;;;4.13;1.75;;;12.80;99.90;;;;;;5050854;28;20033;-44
2023/04/23 01:12:37;;;;;;;4.45;1.90;;;12.80;99.90;;;;;;5050891;28;20029;-43
2023/04/23 01:15:04;;;;;;;3.90;1.80;;;12.80;99.90;;;;;;5050999;28;20493;-43
2023/04/23 01:17:31;;;;;;;4.53;2.00;;;12.80;99.90;;;;;;5050339;28;20100;-43
2023/04/23 01:19:57;;;;;;;2.45;1.88;;;12.80;99.90;;;;;;5050815;28;20021;-43
2023/04/23 01:22:23;;;;;;;7.90;2.40;;;12.70;99.90;;;;;;5050933;28;20033;-44
2023/04/23 01:24:49;;;;;;;3.60;1.75;;;12.80;99.90;;;;;;5051482;28;20081;-44
2023/04/23 01:27:15;;;;;;;2.50;1.52;;;12.80;99.90;;;;;;5050382;28;20021;-44
2023/04/23 01:29:41;;;;;;;2.90;1.50;;;12.70;99.90;;;;;;5050596;28;20118;-44
2023/04/23 01:32:07;;;;;;;4.07;1.80;;;12.70;99.90;;;;;;5050880;28;20475;-44
2023/04/23 01:34:34;;;;;;;5.70;1.92;;;12.70;99.90;;;;;;5051194;28;20021;-41
2023/04/23 01:37:02;;;;;;;3.33;1.80;;;12.70;99.90;;;;;;5050049;28;20507;-41
2023/04/23 01:39:27;;;;;;;3.75;1.88;;;12.70;99.90;;;;;;5050445;28;20155;-43
2023/04/23 01:41:53;;;;;;;4.25;1.80;;;12.70;99.90;;;;;;5050666;28;20128;-40
2023/04/23 01:44:19;;;;;;;3.50;1.70;;;12.70;99.90;;;;;;5052842;28;20037;-44
2023/04/23 01:46:45;;;;;;;2.15;1.50;;;12.70;99.90;;;;;;5050318;28;20071;-45
2023/04/23 01:49:12;;;;;;;2.95;1.65;;;12.70;99.90;;;;;;5050598;28;20032;-45
2023/04/23 01:51:37;;;;;;;2.67;1.70;;;12.70;99.90;;;;;;5050574;28;20103;-43
2023/04/23 01:54:03;;;;;;;2.45;1.65;;;12.70;99.90;;;;;;5050631;28;20104;-43
2023/04/23 01:56:29;;;;;;;4.25;1.73;;;12.70;99.90;;;;;;5050116;28;20028;-39
2023/04/23 01:58:55;;;;;;;3.38;1.60;;;12.70;99.90;;;;;;5050802;28;20025;-44
2023/04/23 02:01:21;;;;;;;2.33;1.75;;;12.70;99.90;;;;;;5053007;28;20028;-44
2023/04/23 02:03:49;;;;;;;2.58;1.60;;;12.70;99.90;;;;;;5054026;28;20033;-43
2023/04/23 02:06:15;;;;;;;4.05;1.88;;;12.70;99.90;;;;;;5053699;28;20483;-45
2023/04/23 02:08:41;;;;;;;2.10;1.58;;;12.70;99.90;;;;;;5054075;28;20028;-44
2023/04/23 02:11:07;;;;;;;3.30;1.75;;;12.70;99.90;;;;;;5054222;28;20124;-45
2023/04/23 02:13:33;;;;;;;3.70;1.70;;;12.70;99.90;;;;;;5054344;28;20486;-37
2023/04/23 02:15:59;;;;;;;2.95;1.70;;;12.70;99.90;;;;;;5053625;28;20107;-39
2023/04/23 02:18:24;;;;;;;2.42;1.70;;;12.70;99.90;;;;;;5053931;28;20074;-43
2023/04/23 02:20:50;;;;;;;2.28;1.65;;;12.70;99.90;;;;;;5053784;28;20090;-42
2023/04/23 02:23:16;;;;;;;2.78;1.48;;;12.70;99.90;;;;;;5054119;28;20029;-44
2023/04/23 02:25:42;;;;;;;3.00;1.50;;;12.70;99.90;;;;;;5054417;28;20036;-40
2023/04/23 02:28:10;;;;;;;2.67;1.50;;;12.70;99.90;;;;;;5053729;28;20062;-41
2023/04/23 02:30:36;;;;;;;1.80;1.33;;;12.70;99.90;;;;;;5053728;28;20021;-43
2023/04/23 02:33:02;;;;;;;2.85;1.83;;;12.70;99.90;;;;;;5053893;28;20029;-44
2023/04/23 02:35:28;;;;;;;3.60;1.40;;;12.70;99.90;;;;;;5053616;28;20037;-44
2023/04/23 02:37:54;;;;;;;2.30;1.58;;;12.70;99.90;;;;;;5053220;28;20036;-41
2023/04/23 02:40:21;;;;;;;2.13;1.50;;;12.70;99.90;;;;;;5054611;28;20031;-43
2023/04/23 02:42:48;;;;;;;2.25;1.55;;;12.70;99.90;;;;;;5053697;28;20097;-45
2023/04/23 02:45:13;;;;;;;2.50;1.60;;;12.70;99.90;;;;;;5053485;28;20028;-45
2023/04/23 02:47:39;;;;;;;6.38;1.40;;;12.70;99.90;;;;;;5052867;28;20029;-44
2023/04/23 02:50:05;;;;;;;3.55;1.50;;;12.70;99.90;;;;;;5053580;28;20029;-44
2023/04/23 02:52:32;;;;;;;2.58;1.40;;;12.70;99.90;;;;;;5053673;28;20097;-40
2023/04/23 02:54:58;;;;;;;2.08;1.48;;;12.60;99.90;;;;;;5054604;28;20036;-40
2023/04/23 02:57:24;;;;;;;2.05;1.60;;;12.60;99.90;;;;;;5052670;28;20029;-43
2023/04/23 02:59:50;;;;;;;2.33;1.42;;;12.60;99.90;;;;;;5053248;28;20036;-43
2023/04/23 03:02:15;;;;;;;2.22;1.27;;;12.60;99.90;;;;;;5052967;28;20494;-43
2023/04/23 03:04:41;;;;;;;2.40;1.40;;;12.70;99.90;;;;;;5053486;28;20105;-40
2023/04/23 03:07:07;;;;;;;1.45;1.30;;;12.70;99.90;;;;;;5052603;28;20551;-43
2023/04/23 03:09:32;;;;;;;1.50;1.23;;;12.60;99.90;;;;;;5053033;28;20147;-44
2023/04/23 03:11:58;;;;;;;1.77;1.40;;;12.60;99.90;;;;;;5052983;28;20056;-43
2023/04/23 03:14:24;;;;;;;1.52;1.30;;;12.60;99.90;;;;;;5053055;28;20078;-44
2023/04/23 03:16:49;;;;;;;2.58;1.42;;;12.60;99.90;;;;;;5052382;28;20288;-43
2023/04/23 03:19:15;;;;;;;2.92;1.27;;;12.60;99.90;;;;;;5052721;28;20536;-45
2023/04/23 03:21:41;;;;;;;2.35;1.40;;;12.60;99.90;;;;;;5052750;28;20454;-41
2023/04/23 03:24:07;;;;;;;2.40;1.17;;;12.60;99.90;;;;;;5052751;28;20017;-44
2023/04/23 03:26:33;;;;;;;2.38;1.30;;;12.60;99.90;;;;;;5052263;28;20032;-44
2023/04/23 03:28:59;;;;;;;2.15;1.27;;;12.60;99.90;;;;;;5053206;28;20025;-44
2023/04/23 03:31:24;;;;;;;3.38;1.35;;;12.60;99.90;;;;;;5052764;28;20493;-44
2023/04/23 03:33:50;;;;;;;1.75;1.20;;;12.60;99.90;;;;;;5052575;28;20021;-44
2023/04/23 03:36:16;;;;;;;2.80;1.35;;;12.60;99.90;;;;;;5052032;28;20029;-41
2023/04/23 03:38:42;;;;;;;3.25;1.40;;;12.60;99.90;;;;;;5053055;28;20138;-44
2023/04/23 03:41:07;;;;;;;1.85;1.30;;;12.60;99.90;;;;;;5052497;28;20521;-44
2023/04/23 03:43:33;;;;;;;2.33;1.38;;;12.60;99.90;;;;;;5052327;28;20364;-44
2023/04/23 03:45:58;;;;;;;1.98;1.25;;;12.60;99.90;;;;;;5051889;28;20025;-43
2023/04/23 03:48:24;;;;;;;1.58;1.17;;;12.60;99.90;;;;;;5052050;28;20025;-44
2023/04/23 03:50:49;;;;;;;1.73;1.17;;;12.60;99.90;;;;;;5052357;28;20052;-43
2023/04/23 03:53:16;;;;;;;1.70;1.20;;;12.60;99.90;;;;;;5052177;28;20031;-45
2023/04/23 03:55:42;;;;;;;2.03;1.10;;;12.60;99.90;;;;;;5051938;28;20032;-43
2023/04/23 03:58:08;;;;;;;1.88;1.00;;;12.60;99.90;;;;;;5051806;28;20029;-41
2023/04/23 04:00:34;;;;;;;2.10;0.93;;;12.60;99.90;;;;;;5051901;28;20028;-44
2023/04/23 04:03:00;;;;;;;2.00;1.05;;;12.60;99.90;;;;;;5051969;28;20057;-44
2023/04/23 04:05:27;;;;;;;1.30;1.02;;;12.60;99.90;;;;;;5051882;28;20021;-45
2023/04/23 04:07:53;;;;;;;1.95;1.30;;;12.60;99.90;;;;;;5051683;28;20033;-43
2023/04/23 04:10:18;;;;;;;2.00;1.10;;;12.60;99.90;;;;;;5052007;28;20418;-43
2023/04/23 04:12:46;;;;;;;1.60;1.10;;;12.60;99.90;;;;;;5051955;28;20037;-41
2023/04/23 04:15:12;;;;;;;1.85;1.15;;;12.60;99.90;;;;;;5051817;28;20047;-44
2023/04/23 04:17:38;;;;;;;1.95;1.25;;;12.60;99.90;;;;;;5051808;28;20395;-42
2023/04/23 04:20:07;;;;;;;1.67;1.08;;;12.60;99.90;;;;;;5051046;28;20104;-43
2023/04/23 04:22:33;;;;;;;1.85;1.05;;;12.60;99.90;;;;;;5051351;28;20140;-42
2023/04/23 04:24:58;;;;;;;1.75;1.15;;;12.50;99.90;;;;;;5051378;28;20530;-43
2023/04/23 04:27:24;;;;;;;3.05;1.20;;;12.60;99.90;;;;;;5050918;28;20025;-42
2023/04/23 04:29:50;;;;;;;1.58;1.17;;;12.60;99.90;;;;;;5051573;28;20023;-42
2023/04/23 04:32:16;;;;;;;1.42;1.00;;;12.60;99.90;;;;;;5052230;28;20024;-41
2023/04/23 04:34:42;;;;;;;1.33;1.23;;;12.50;99.90;;;;;;5052013;28;20033;-44
2023/04/23 04:37:09;;;;;;;1.40;1.08;;;12.60;99.90;;;;;;5050921;28;20029;-43
2023/04/23 04:39:35;;;;;;;1.17;0.98;;;12.50;99.90;;;;;;5051239;28;20029;-41
2023/04/23 04:42:01;;;;;;;1.55;0.90;;;12.50;99.90;;;;;;5051200;28;20448;-45
2023/04/23 04:44:28;;;;;;;2.55;1.10;;;12.50;99.90;;;;;;5051519;28;20021;-45
2023/04/23 04:46:53;;;;;;;2.83;1.48;;;12.50;99.90;;;;;;5051050;28;20454;-44
2023/04/23 04:49:20;;;;;;;2.90;1.60;;;12.50;99.90;;;;;;5051163;28;20388;-43
2023/04/23 04:51:46;;;;;;;1.63;1.20;;;12.60;99.90;;;;;;5051072;28;20526;-44
2023/04/23 04:54:11;;;;;;;1.88;1.13;;;12.60;99.90;;;;;;5051169;28;20116;-44
2023/04/23 04:56:37;;;;;;;4.13;1.10;;;12.50;99.90;;;;;;5050386;28;20082;-44
2023/04/23 04:59:03;;;;;;;1.02;0.80;;;12.50;99.90;;;;;;5050905;28;20477;-45
2023/04/23 05:01:29;;;;;;;2.42;1.10;;;12.50;99.90;;;;;;5051034;28;20032;-42
2023/04/23 05:03:55;;;;;;;1.92;1.00;;;12.50;99.90;;;;;;5050942;28;20033;-44
2023/04/23 05:06:21;;;;;;;1.75;1.00;;;12.50;99.90;;;;;;5050670;28;20021;-42
2023/04/23 05:08:47;;;;;;;2.22;1.30;;;12.50;99.90;;;;;;5051032;28;20482;-43
2023/04/23 05:11:17;;;;;;;1.65;1.25;;;12.50;99.90;;;;;;5052578;28;20029;-41
2023/04/23 05:13:46;;;;;;;2.17;1.30;;;12.50;99.90;;;;;;5050883;28;20049;-43
2023/04/23 05:16:12;;;;;;;1.67;0.95;;;12.50;99.90;;;;;;5050259;28;20025;-43
2023/04/23 05:18:38;;;;;;;1.33;1.05;;;12.50;99.90;;;;;;5051018;28;20024;-45
2023/04/23 05:21:05;;;;;;;1.25;0.80;;;12.50;99.90;;;;;;5049748;28;20028;-43
2023/04/23 05:23:31;;;;;;;1.80;1.10;;;12.50;99.90;;;;;;5050886;28;20056;-42
2023/04/23 05:25:57;;;;;;;1.52;1.00;;;12.50;99.90;;;;;;5050283;28;20100;-44
2023/04/23 05:28:23;;;;;;;1.20;1.00;;;12.50;99.90;;;;;;5050540;28;20029;-44
2023/04/23 05:30:50;;;;;;;1.13;0.77;;;12.50;99.90;;;;;;5050862;28;20504;-44
2023/04/23 05:33:16;;;;;;;2.28;1.00;;;12.50;99.90;;;;;;5050754;28;20029;-43
2023/04/23 05:35:42;;;;;;;2.90;1.38;;;12.50;99.90;;;;;;5053283;28;20032;-43
2023/04/23 05:38:08;;;;;;;1.92;1.05;;;12.50;99.90;;;;;;5054556;28;20036;-44
2023/04/23 05:40:33;;;;;;;1.58;0.80;;;12.50;99.90;;;;;;5054859;28;20044;-45
2023/04/23 05:42:59;;;;;;;1.15;1.02;;;12.50;99.90;;;;;;5054719;28;20184;-44
2023/04/23 05:45:25;;;;;;;1.92;1.02;;;12.50;99.90;;;;;;5054590;28;20104;-42
2023/04/23 05:47:51;;;;;;;2.53;1.02;;;12.50;99.90;;;;;;5054160;28;20051;-44
2023/04/23 05:50:17;;;;;;;2.22;1.00;;;12.50;99.90;;;;;;5054429;28;20037;-43
2023/04/23 05:52:43;;;;;;;1.17;0.90;;;12.50;99.90;;;;;;5054539;28;20110;-41
2023/04/23 05:55:09;;;;;;;1.90;1.10;;;12.60;99.90;;;;;;5054470;28;20494;-43
2023/04/23 05:57:38;;;;;;;1.30;0.98;;;12.60;99.90;;;;;;5053906;28;20036;-44
2023/04/23 06:00:08;;;;;;;1.35;1.00;;;12.50;99.90;;;;;;5054385;28;20029;-45
2023/04/23 06:02:34;;;;;;;1.65;0.80;;;12.50;99.90;;;;;;5054584;28;20491;-44
2023/04/23 06:05:00;;;;;;;1.88;0.90;;;12.50;99.90;;;;;;5056804;28;20031;-43
2023/04/23 06:07:25;;;;;;;1.23;1.00;;;12.50;99.90;;;;;;5053531;28;20074;-45
2023/04/23 06:09:51;;;;;;;1.17;0.77;;;12.50;99.90;;;;;;5054279;28;20032;-45
2023/04/23 06:12:18;;;;;;;1.77;1.17;;;12.60;99.90;;;;;;5054907;28;20053;-44
2023/04/23 06:14:43;;;;;;;0.95;0.80;;;12.50;99.90;;;;;;5054481;28;20441;-44
2023/04/23 06:17:09;;;;;;;1.80;1.00;;;12.50;99.90;;;;;;5052323;28;20112;-43
2023/04/23 06:19:35;;;;;;;1.63;0.90;;;12.50;99.90;;;;;;5053874;28;20036;-44
2023/04/23 06:22:00;;;;;;;1.10;0.88;;;12.50;99.90;;;;;;5054276;28;20021;-38
2023/04/23 06:24:26;;;;;;;2.55;0.80;;;12.50;99.90;;;;;;5054251;28;20451;-40
2023/04/23 06:26:51;;;;;;;1.60;1.00;;;12.50;99.90;;;;;;5053875;28;20031;-44
2023/04/23 06:29:17;;;;;;;1.38;0.90;;;12.60;99.90;;;;;;5054220;28;20107;-43
2023/04/23 06:31:43;;;;;;;1.13;0.70;;;12.50;99.90;;;;;;5054092;28;20060;-43
2023/04/23 06:34:08;;;;;;;1.90;0.90;;;12.50;99.90;;;;;;5054250;28;20040;-44
2023/04/23 06:36:34;;;;;;;1.02;0.68;;;12.60;99.90;;;;;;5054177;28;20028;-43
2023/04/23 06:38:59;;;;;;;2.20;1.13;;;12.60;99.90;;;;;;5053855;28;20503;-41
2023/04/23 06:41:25;;;;;;;0.82;0.73;;;12.60;99.90;;;;;;5054851;28;20047;-44
2023/04/23 06:43:51;;;;;;;1.20;0.70;;;12.60;99.90;;;;;;5054498;28;20028;-44
2023/04/23 06:46:16;;;;;;;1.42;0.90;;;12.60;99.90;;;;;;5052486;28;20017;-42
2023/04/23 06:48:42;;;;;;;2.03;0.90;;;12.60;99.90;;;;;;5054726;28;20025;-44
2023/04/23 06:51:08;;;;;;;2.17;0.90;;;12.60;99.90;;;;;;5053587;28;20059;-45
2023/04/23 06:53:33;;;;;;;1.20;0.75;;;12.60;99.90;;;;;;5053927;28;20021;-45
2023/04/23 06:55:59;;;;;;;1.60;0.80;;;12.60;99.90;;;;;;5053419;28;20032;-41
2023/04/23 06:58:30;;;;;;;1.33;0.95;;;12.60;99.90;;;;;;5053552;28;20025;-43
2023/04/23 07:00:58;;;;;;;1.08;0.70;;;12.60;99.90;;;;;;5053343;28;20024;-44
2023/04/23 07:03:26;;;;;;;1.73;0.88;;;12.60;99.90;;;;;;5053590;28;20036;-43
2023/04/23 07:05:52;;;;;;;1.05;0.93;;;12.70;99.90;;;;;;5051349;28;20025;-43
2023/04/23 07:08:19;;;;;;;1.05;0.80;;;12.70;99.90;;;;;;5053252;28;20025;-44
2023/04/23 07:10:45;;;;;;;0.85;0.75;;;12.70;99.90;;;;;;5054034;28;20108;-41
2023/04/23 07:13:11;;;;;;;1.33;0.70;;;12.70;99.90;;;;;;5053224;28;20108;-44
2023/04/23 07:15:36;;;;;;;0.80;0.50;;;12.70;99.90;;;;;;5055092;28;20044;-41
2023/04/23 07:18:02;;;;;;;1.67;1.00;;;12.70;99.90;;;;;;5052808;28;20036;-43
2023/04/23 07:20:28;;;;;;;1.45;0.93;;;12.80;99.90;;;;;;5052857;28;20031;-45
2023/04/23 07:22:53;;;;;;;1.00;0.80;;;12.70;99.90;;;;;;5053759;28;20025;-44
2023/04/23 07:25:21;;;;;;;1.25;0.82;;;12.80;99.90;;;;;;5052977;28;20017;-45
2023/04/23 07:27:47;;;;;;;1.63;0.75;;;12.80;99.90;;;;;;5052344;28;20017;-45
2023/04/23 07:30:13;;;;;;;0.70;0.70;;;12.70;99.90;;;;;;5052856;28;20041;-44
2023/04/23 07:32:38;;;;;;;0.80;0.68;;;12.80;99.90;;;;;;5052788;28;20021;-44
2023/04/23 07:35:06;;;;;;;1.13;0.70;;;12.80;99.90;;;;;;5052832;28;20459;-43
2023/04/23 07:37:31;;;;;;;1.83;0.80;;;12.80;99.90;;;;;;5052967;28;20029;-45
2023/04/23 07:39:57;;;;;;;1.02;0.80;;;12.80;99.90;;;;;;5052424;28;20103;-45
2023/04/23 07:42:22;;;;;;;0.88;0.60;;;12.80;99.90;;;;;;5052378;28;20037;-42
2023/04/23 07:44:48;;;;;;;2.70;0.80;;;12.80;99.90;;;;;;5052450;28;20031;-44
2023/04/23 07:47:13;;;;;;;0.98;0.75;;;12.80;99.90;;;;;;5052126;28;20087;-43
2023/04/23 07:49:39;;;;;;;0.85;0.70;;;12.80;99.90;;;;;;5052265;28;20021;-44
2023/04/23 07:52:05;;;;;;;0.88;0.52;;;12.80;99.90;;;;;;5052339;28;20486;-44
2023/04/23 07:54:31;;;;;;;1.00;0.63;;;12.80;99.90;;;;;;5052199;28;20060;-44
2023/04/23 07:56:56;;;;;;;0.90;0.80;;;12.90;99.90;;;;;;5051660;28;20029;-41
2023/04/23 07:59:22;;;;;;;3.33;0.70;;;12.90;99.90;;;;;;5051690;28;20063;-43
2023/04/23 08:01:48;;;;;;;1.00;0.60;;;12.90;99.90;;;;;;5051975;28;20390;-44
2023/04/23 08:04:13;;;;;;;0.80;0.68;;;12.90;99.90;;;;;;5052025;28;20025;-43
2023/04/23 08:06:40;;;;;;;1.23;0.70;;;12.90;99.90;;;;;;5051548;28;20036;-43
2023/04/23 08:09:06;;;;;;;0.93;0.73;;;12.90;99.90;;;;;;5052002;28;20386;-44
2023/04/23 08:11:32;;;;;;;0.77;0.70;;;12.90;99.90;;;;;;5051769;28;20028;-45
2023/04/23 08:13:58;;;;;;;1.52;0.80;;;12.90;99.90;;;;;;5051781;28;20100;-43
2023/04/23 08:16:25;;;;;;;1.33;0.70;;;12.90;99.90;;;;;;5053178;28;20508;-43
2023/04/23 08:18:50;;;;;;;0.95;0.82;;;12.90;99.90;;;;;;5051956;28;20147;-45
2023/04/23 08:21:16;;;;;;;0.57;0.50;;;12.90;99.90;;;;;;5051729;28;20100;-41
2023/04/23 08:23:42;;;;;;;0.60;0.50;;;12.90;99.90;;;;;;5051678;28;20025;-44
2023/04/23 08:26:07;;;;;;;0.75;0.70;;;13.00;99.90;;;;;;5051472;28;20130;-41
2023/04/23 08:28:33;;;;;;;1.02;0.60;;;12.90;99.90;;;;;;5051529;28;20028;-45
2023/04/23 08:30:59;;;;;;;1.13;0.80;;;12.90;99.90;;;;;;5051732;28;20422;-45
2023/04/23 08:33:25;;;;;;;0.60;0.57;;;12.90;99.90;;;;;;5051471;28;20502;-45
2023/04/23 08:35:51;;;;;;;0.80;0.70;;;12.90;99.90;;;;;;5051116;28;20035;-41
2023/04/23 08:38:17;;;;;;;0.93;0.77;;;12.90;99.90;;;;;;5051841;28;20029;-44
2023/04/23 08:40:44;;;;;;;1.05;0.80;;;12.90;99.90;;;;;;5051227;28;20036;-42
2023/04/23 08:43:17;;;;;;;1.27;0.93;;;12.90;99.90;;;;;;5051269;28;20025;-44
2023/04/23 08:45:46;;;;;;;2.00;0.85;;;12.90;99.90;;;;;;5051004;28;20028;-45
2023/04/23 08:48:13;;;;;;;1.02;0.70;;;12.90;99.90;;;;;;5051029;28;20094;-43
2023/04/23 08:50:42;;;;;;;1.25;0.73;;;12.90;99.90;;;;;;5052299;28;20053;-44
2023/04/23 08:53:09;;;;;;;1.13;0.70;;;12.90;99.90;;;;;;5052022;28;20078;-41
2023/04/23 08:55:35;;;;;;;0.70;0.70;;;12.90;99.90;;;;;;5050781;28;20021;-44
2023/04/23 08:58:03;;;;;;;1.27;0.70;;;12.90;99.90;;;;;;5050604;28;20044;-43
2023/04/23 09:00:29;;;;;;;1.13;0.80;;;12.90;99.90;;;;;;5051072;28;20112;-44
2023/04/23 09:02:55;;;;;;;0.93;0.70;;;12.80;99.90;;;;;;5050859;28;20124;-44
2023/04/23 09:05:21;;;;;;;0.77;0.75;;;12.90;99.90;;;;;;5051034;28;20095;-44
2023/04/23 09:07:46;;;;;;;1.55;0.70;;;12.90;99.90;;;;;;5049221;28;20428;-40
2023/04/23 09:10:13;;;;;;;1.35;0.80;;;12.80;99.90;;;;;;5050460;28;20051;-43
2023/04/23 09:12:41;;;;;;;1.38;0.80;;;12.80;99.90;;;;;;5050910;28;20037;-43
2023/04/23 09:15:11;;;;;;;3.72;1.10;;;12.90;99.90;;;;;;5050918;28;20017;-45
2023/04/23 09:17:42;;;;;;;1.00;0.70;;;12.90;99.90;;;;;;5050542;28;20034;-44
2023/04/23 09:20:09;;;;;;;1.42;0.80;;;12.90;99.90;;;;;;5051349;28;20021;-43
2023/04/23 09:22:49;;;;;;;1.33;0.85;;;12.90;99.90;;;;;;5050864;28;20021;-44
2023/04/23 09:25:19;;;;;;;1.73;0.82;;;12.90;99.90;;;;;;5050714;28;20025;-43
2023/04/23 09:27:46;;;;;;;1.42;0.80;;;12.90;99.90;;;;;;5050326;28;20109;-43
2023/04/23 09:30:13;;;;;;;2.28;0.77;;;12.90;99.90;;;;;;5050734;28;20033;-44
2023/04/23 09:32:41;;;;;;;1.83;0.90;;;12.90;99.90;;;;;;5050964;28;20025;-45
2023/04/23 09:35:09;;;;;;;0.85;0.70;;;12.90;99.90;;;;;;5050623;28;20048;-44
2023/04/23 09:37:35;;;;;;;1.23;0.70;;;12.90;99.90;;;;;;5050003;28;20033;-44
2023/04/23 09:40:03;;;;;;;1.83;0.90;;;12.90;99.90;;;;;;5050617;28;20029;-46
2023/04/23 09:42:31;;;;;;;1.42;0.90;;;12.90;99.90;;;;;;5050656;28;20028;-43
2023/04/23 09:45:06;;;;;;;1.13;0.85;;;13.00;99.90;;;;;;5050544;28;20029;-43
2023/04/23 09:47:39;;;;;;;0.90;0.73;;;13.00;99.90;;;;;;5050171;28;20095;-43
2023/04/23 09:50:06;;;;;;;1.33;0.80;;;13.00;99.90;;;;;;5051163;28;20033;-43
2023/04/23 09:52:32;;;;;;;2.03;0.90;;;13.00;99.90;;;;;;5050519;28;20422;-42
2023/04/23 09:55:01;;;;;;;1.58;1.10;;;13.10;99.90;;;;;;5050762;28;20053;-45
2023/04/23 09:57:26;;;;;;;0.70;0.70;;;13.10;99.90;;;;;;5051696;28;20494;-45
2023/04/23 09:59:56;;;;;;;1.00;0.80;;;13.20;99.90;;;;;;5050488;28;20033;-41
2023/04/23 10:02:27;;;;;;;1.30;0.90;;;13.20;99.90;;;;;;5050555;28;20021;-44
2023/04/23 10:04:53;;;;;;;1.50;0.77;;;13.20;99.90;;;;;;5050818;28;20111;-44
2023/04/23 10:07:19;;;;;;;2.03;0.93;;;13.10;99.90;;;;;;5050530;28;20380;-46
2023/04/23 10:09:46;;;;;;;1.17;0.80;;;13.10;99.90;;;;;;5050455;28;20040;-45
2023/04/23 10:12:12;;;;;;;1.50;0.95;;;13.10;99.90;;;;;;5050311;28;20021;-43
2023/04/23 10:14:39;;;;;;;1.08;0.75;;;13.10;99.90;;;;;;5050289;28;20064;-44
2023/04/23 10:17:06;;;;;;;0.60;0.60;;;13.10;99.90;;;;;;5049642;28;20087;-43
2023/04/23 10:19:32;;;;;;;1.30;0.90;;;13.20;99.90;;;;;;5049640;28;20040;-44
2023/04/23 10:22:03;;;;;;;2.30;0.80;;;13.20;99.90;;;;;;5052691;28;20025;-45
2023/04/23 10:24:32;;;;;;;0.88;0.80;;;13.10;99.90;;;;;;5052567;28;20071;-43
2023/04/23 10:27:03;;;;;;;1.08;0.85;;;13.10;99.90;;;;;;5053291;28;20485;-44
2023/04/23 10:29:30;;;;;;;1.20;0.80;;;13.10;99.90;;;;;;5053663;28;20031;-44
2023/04/23 10:31:58;;;;;;;0.95;0.80;;;13.10;99.90;;;;;;5053816;28;20023;-45
2023/04/23 10:34:25;;;;;;;1.30;1.00;;;13.10;99.90;;;;;;5053941;28;20029;-45
2023/04/23 10:36:52;;;;;;;1.17;0.70;;;13.10;99.90;;;;;;5053191;28;20485;-44
2023/04/23 10:39:20;;;;;;;2.35;0.85;;;13.10;99.90;;;;;;5053520;28;20071;-44
2023/04/23 10:41:47;;;;;;;1.08;0.80;;;13.10;99.90;;;;;;5053474;28;20017;-46
2023/04/23 10:44:15;;;;;;;0.60;0.60;;;13.10;99.90;;;;;;5053558;28;20017;-43
2023/04/23 10:46:51;;;;;;;1.30;0.80;;;13.10;99.90;;;;;;5052941;28;20365;-44
2023/04/23 10:49:17;;;;;;;1.25;0.88;;;13.20;99.90;;;;;;5053488;28;20434;-41
2023/04/23 10:51:46;;;;;;;0.88;0.75;;;13.20;99.90;;;;;;5053516;28;20212;-41
2023/04/23 10:54:18;;;;;;;0.82;0.70;;;13.20;99.90;;;;;;5053820;28;20114;-43
2023/04/23 10:56:43;;;;;;;0.80;0.68;;;13.20;99.90;;;;;;5053185;28;20070;-44
2023/04/23 10:59:21;;;;;;;1.23;0.90;;;13.20;99.90;;;;;;5053625;28;20025;-41
2023/04/23 11:01:49;;;;;;;0.90;0.70;;;13.20;99.90;;;;;;5053528;28;20024;-43
2023/04/23 11:04:27;;;;;;;1.05;0.70;;;13.20;99.90;;;;;;5053478;28;20131;-43
2023/04/23 11:06:55;;;;;;;0.88;0.80;;;13.10;99.90;;;;;;5052598;28;20017;-40
2023/04/23 11:09:42;;;;;;;0.70;0.70;;;13.10;99.90;;;;;;5053389;28;20017;-44
2023/04/23 11:12:12;;;;;;;0.95;0.80;;;13.10;99.90;;;;;;5053142;28;20029;-44
2023/04/23 11:14:40;;;;;;;0.85;0.70;;;13.10;99.90;;;;;;5053168;28;20021;-44
2023/04/23 11:17:06;;;;;;;1.70;0.65;;;13.10;99.90;;;;;;5052264;28;20028;-42
2023/04/23 11:19:36;;;;;;;2.08;0.85;;;13.10;99.90;;;;;;5052119;28;20039;-44
2023/04/23 11:22:07;;;;;;;1.00;0.90;;;13.10;99.90;;;;;;5052890;28;20013;-43
2023/04/23 11:24:35;;;;;;;1.30;0.80;;;13.10;99.90;;;;;;5052864;28;20036;-43
2023/04/23 11:27:05;;;;;;;2.42;1.05;;;13.20;99.90;;;;;;5052257;28;20017;-43
2023/04/23 11:29:30;;;;;;;1.05;0.77;;;13.20;99.90;;;;;;5052387;28;20029;-43
2023/04/23 11:31:56;;;;;;;0.93;0.70;;;13.20;99.90;;;;;;5052594;28;20035;-43
2023/04/23 11:34:22;;;;;;;1.48;0.90;;;13.20;99.90;;;;;;5052830;28;20025;-43
2023/04/23 11:36:52;;;;;;;1.10;0.80;;;13.20;99.90;;;;;;5051972;28;20025;-45
2023/04/23 11:39:20;;;;;;;1.42;0.90;;;13.20;99.90;;;;;;5052567;28;20024;-45
2023/04/23 11:41:46;;;;;;;1.25;0.80;;;13.20;99.90;;;;;;5052547;28;20029;-44
2023/04/23 11:44:12;;;;;;;1.20;0.98;;;13.20;99.90;;;;;;5052441;28;20025;-44
2023/04/23 11:46:38;;;;;;;1.63;0.93;;;13.20;99.90;;;;;;5051861;28;20035;-44
2023/04/23 11:49:05;;;;;;;1.65;1.00;;;13.20;99.90;;;;;;5052268;28;20104;-44
2023/04/23 11:51:31;;;;;;;1.30;0.80;;;13.20;99.90;;;;;;5052220;28;20018;-43
2023/04/23 11:54:02;;;;;;;1.10;0.80;;;13.20;99.90;;;;;;5052232;28;20031;-44
2023/04/23 11:56:31;;;;;;;2.13;0.90;;;13.20;99.90;;;;;;5051513;28;20075;-40
2023/04/23 11:59:02;;;;;;;0.90;0.80;;;13.20;99.90;;;;;;5052119;28;20028;-44
2023/04/23 12:01:50;;;;;;;1.13;0.68;;;13.20;99.90;;;;;;5051999;28;20380;-44
2023/04/23 12:04:20;;;;;;;1.50;0.82;;;13.20;99.90;;;;;;5051986;28;20033;-42
2023/04/23 12:06:47;;;;;;;0.88;0.70;;;13.30;99.90;;;;;;5051324;28;20029;-44
2023/04/23 12:09:15;;;;;;;1.13;0.80;;;13.30;99.90;;;;;;5051895;28;20249;-43
2023/04/23 12:11:42;;;;;;;1.27;0.90;;;13.40;99.90;;;;;;5051826;28;20033;-43
2023/04/23 12:14:08;;;;;;;1.35;0.90;;;13.30;99.90;;;;;;5051847;28;20110;-43
2023/04/23 12:16:45;;;;;;;0.73;0.60;;;13.20;99.90;;;;;;5051670;28;20044;-43
2023/04/23 12:19:16;;;;;;;1.27;0.75;;;13.20;99.90;;;;;;5051297;28;20053;-44
2023/04/23 12:21:49;;;;;;;2.25;0.80;;;13.20;99.90;;;;;;5051813;28;20024;-44
2023/04/23 12:24:15;;;;;;;1.52;0.80;;;13.20;99.90;;;;;;5051763;28;20075;-44
2023/04/23 12:26:42;;;;;;;1.20;0.90;;;13.20;99.90;;;;;;5051016;28;20426;-43
2023/04/23 12:29:08;;;;;;;2.42;1.00;;;13.30;99.90;;;;;;5051599;28;20104;-43
2023/04/23 12:31:37;;;;;;;1.35;0.75;;;13.30;99.90;;;;;;5051419;28;20120;-44
2023/04/23 12:34:05;;;;;;;1.73;0.70;;;13.40;99.90;;;;;;5051381;28;20041;-43
2023/04/23 12:36:32;;;;;;;1.27;1.00;;;13.40;99.90;;;;;;5050815;28;20029;-45
2023/04/23 12:39:23;;;;;;;1.10;0.70;;;13.40;99.90;;;;;;5051369;28;20762;-44
2023/04/23 12:41:54;;;;;;;0.85;0.70;;;13.30;99.90;;;;;;5051218;28;20037;-44
2023/04/23 12:44:20;;;;;;;1.50;0.90;;;13.30;99.90;;;;;;5050724;28;20052;-44
2023/04/23 12:46:53;;;;;;;1.20;0.73;;;13.40;99.90;;;;;;5050753;28;20017;-43